createdAt,value
2022-09-20T00:01:42.384Z,100584.50
2022-09-20T00:04:12.236Z,100579.81
2022-09-20T00:06:41.680Z,100587.91
2022-09-20T00:09:09.913Z,100591.47
2022-09-20T00:11:38.526Z,100600.06
2022-09-20T00:14:11.009Z,100599.94
2022-09-20T00:16:41.692Z,100601.09
2022-09-20T00:19:16.024Z,100597.66
2022-09-20T00:21:45.610Z,100598.84
2022-09-20T00:24:14.011Z,100601.03
2022-09-20T00:26:42.844Z,100592.28
2022-09-20T00:29:11.950Z,100604.88
2022-09-20T00:31:41.484Z,100597.16
2022-09-20T00:34:41.164Z,100589.69
2022-09-20T00:37:10.386Z,100590.03
2022-09-20T00:39:38.143Z,100586.03
2022-09-20T00:42:06.583Z,100591.91
2022-09-20T00:44:46.158Z,100589.00
2022-09-20T00:47:20.646Z,100598.94
2022-09-20T00:49:49.611Z,100596.91
2022-09-20T00:52:19.408Z,100599.94
2022-09-20T00:54:48.170Z,100592.88
2022-09-20T00:57:16.041Z,100603.03
2022-09-20T00:59:51.176Z,100594.34
2022-09-20T01:02:25.121Z,100604.59
2022-09-20T01:04:53.682Z,100603.91
2022-09-20T01:07:24.077Z,100602.91
2022-09-20T01:09:53.271Z,100605.63
2022-09-20T01:12:24.721Z,100604.78
2022-09-20T01:14:55.736Z,100602.75
2022-09-20T01:17:26.942Z,100596.22
2022-09-20T01:20:09.337Z,100600.72
2022-09-20T01:22:46.973Z,100602.97
2022-09-20T01:25:18.509Z,100610.66
2022-09-20T01:27:49.872Z,100614.13
2022-09-20T01:30:21.242Z,100619.34
2022-09-20T01:33:03.827Z,100611.72
2022-09-20T01:35:37.328Z,100612.66
2022-09-20T01:38:20.469Z,100616.75
2022-09-20T01:40:57.356Z,100618.25
2022-09-20T01:43:35.001Z,100617.38
2022-09-20T01:46:12.359Z,100610.28
2022-09-20T01:48:41.138Z,100603.78
2022-09-20T01:51:34.023Z,100617.53
2022-09-20T01:54:38.814Z,100610.41
2022-09-20T01:57:31.306Z,100610.50
2022-09-20T02:00:14.520Z,100612.47
2022-09-20T02:03:13.326Z,100602.88
2022-09-20T02:06:13.995Z,100606.47
2022-09-20T02:09:11.627Z,100602.66
2022-09-20T02:11:52.636Z,100590.84
2022-09-20T02:14:33.091Z,100601.19
2022-09-20T02:17:12.761Z,100599.22
2022-09-20T02:20:05.655Z,100602.44
2022-09-20T02:22:44.461Z,100605.84
2022-09-20T02:25:54.679Z,100601.75
2022-09-20T02:28:32.854Z,100602.28
2022-09-20T02:31:14.406Z,100601.66
2022-09-20T02:34:04.945Z,100600.16
2022-09-20T02:36:45.028Z,100605.31
2022-09-20T02:39:18.034Z,100597.81
2022-09-20T02:42:04.468Z,100595.88
2022-09-20T02:44:48.415Z,100612.47
2022-09-20T02:47:26.476Z,100599.59
2022-09-20T02:50:06.634Z,100603.31
2022-09-20T02:52:44.351Z,100606.53
2022-09-20T02:55:20.993Z,100604.47
2022-09-20T02:58:02.856Z,100606.69
2022-09-20T03:00:38.545Z,100612.91
2022-09-20T03:03:14.538Z,100615.44
2022-09-20T03:05:53.470Z,100611.34
2022-09-20T03:08:34.559Z,100614.81
2022-09-20T03:11:16.615Z,100608.34
2022-09-20T03:13:56.167Z,100611.03
2022-09-20T03:16:36.912Z,100612.78
2022-09-20T03:19:18.151Z,100616.19
2022-09-20T03:22:00.900Z,100612.56
2022-09-20T03:28:08.066Z,100615.94
2022-09-20T03:30:52.561Z,100622.97
2022-09-20T03:33:30.547Z,100619.53
2022-09-20T03:36:14.554Z,100624.81
2022-09-20T03:39:05.985Z,100618.19
2022-09-20T03:41:48.287Z,100624.31
2022-09-20T03:44:36.664Z,100623.66
2022-09-20T03:47:18.397Z,100627.69
2022-09-20T03:50:00.019Z,100632.81
2022-09-20T03:52:53.306Z,100629.63
2022-09-20T03:55:56.814Z,100625.84
2022-09-20T03:58:35.993Z,100632.38
2022-09-20T04:01:29.203Z,100635.59
2022-09-20T04:04:05.163Z,100631.06
2022-09-20T04:07:00.330Z,100635.75
2022-09-20T04:10:02.276Z,100633.34
2022-09-20T04:12:41.769Z,100624.38
2022-09-20T04:15:27.454Z,100634.16
2022-09-20T04:18:02.335Z,100626.88
2022-09-20T04:20:38.672Z,100639.69
2022-09-20T04:23:21.142Z,100637.84
2022-09-20T04:25:51.924Z,100634.28
2022-09-20T04:28:26.943Z,100646.06
2022-09-20T04:31:01.153Z,100641.88
2022-09-20T04:33:35.426Z,100635.84
2022-09-20T04:36:30.495Z,100635.84
2022-09-20T04:39:08.315Z,100636.97
2022-09-20T04:42:08.737Z,100634.75
2022-09-20T04:45:08.559Z,100643.19
2022-09-20T04:48:08.561Z,100645.22
2022-09-20T04:51:19.213Z,100638.50
2022-09-20T04:54:15.293Z,100651.09
2022-09-20T04:57:06.869Z,100651.53
2022-09-20T05:00:01.080Z,100653.31
2022-09-20T05:03:01.499Z,100660.75
2022-09-20T05:05:50.468Z,100660.59
2022-09-20T05:09:05.497Z,100665.22
2022-09-20T05:11:58.080Z,100673.66
2022-09-20T05:15:02.216Z,100666.56
2022-09-20T05:17:43.808Z,100676.66
2022-09-20T05:20:43.983Z,100672.06
2022-09-20T05:23:29.469Z,100672.97
2022-09-20T05:26:08.526Z,100676.25
2022-09-20T05:28:45.822Z,100678.22
2022-09-20T05:31:21.326Z,100682.81
2022-09-20T05:33:57.556Z,100684.66
2022-09-20T05:36:34.829Z,100688.56
2022-09-20T05:39:14.029Z,100689.44
2022-09-20T05:41:46.991Z,100696.75
2022-09-20T05:44:28.879Z,100702.44
2022-09-20T05:47:05.218Z,100706.41
2022-09-20T05:49:48.461Z,100710.28
2022-09-20T05:52:31.152Z,100708.41
2022-09-20T05:55:20.664Z,100706.63
2022-09-20T05:58:05.336Z,100705.03
2022-09-20T06:00:40.797Z,100708.09
2022-09-20T06:03:20.024Z,100706.47
2022-09-20T06:06:00.248Z,100717.91
2022-09-20T06:08:58.113Z,100719.13
2022-09-20T06:12:01.869Z,100713.53
2022-09-20T06:14:43.376Z,100720.94
2022-09-20T06:17:30.133Z,100716.03
2022-09-20T06:20:19.552Z,100719.13
2022-09-20T06:22:52.527Z,100716.13
2022-09-20T06:25:25.563Z,100723.19
2022-09-20T06:27:59.429Z,100723.09
2022-09-20T06:30:31.202Z,100719.00
2022-09-20T06:33:01.949Z,100714.69
2022-09-20T06:35:38.297Z,100716.81
2022-09-20T06:38:50.417Z,100716.13
2022-09-20T06:41:30.788Z,100720.75
2022-09-20T06:44:04.688Z,100724.22
2022-09-20T06:46:34.932Z,100719.53
2022-09-20T06:49:04.235Z,100728.38
2022-09-20T06:51:36.969Z,100722.78
2022-09-20T06:54:11.592Z,100720.72
2022-09-20T06:56:40.153Z,100722.66
2022-09-20T06:59:10.352Z,100727.16
2022-09-20T07:01:46.132Z,100722.25
2022-09-20T07:04:14.509Z,100724.47
2022-09-20T07:06:43.030Z,100734.44
2022-09-20T07:09:13.059Z,100741.47
2022-09-20T07:11:41.183Z,100742.31
2022-09-20T07:14:09.343Z,100747.41
2022-09-20T07:16:40.040Z,100756.06
2022-09-20T07:19:08.289Z,100760.81
2022-09-20T07:21:36.262Z,100758.34
2022-09-20T07:24:04.452Z,100763.78
2022-09-20T07:26:34.254Z,100763.28
2022-09-20T07:29:02.739Z,100755.63
2022-09-20T07:31:31.609Z,100759.75
2022-09-20T07:34:00.648Z,100753.47
2022-09-20T07:36:29.431Z,100758.28
2022-09-20T07:38:57.565Z,100758.19
2022-09-20T07:41:32.657Z,100760.50
2022-09-20T07:44:21.730Z,100770.03
2022-09-20T07:46:50.445Z,100764.44
2022-09-20T07:49:19.695Z,100771.59
2022-09-20T07:51:47.747Z,100774.94
2022-09-20T07:54:16.431Z,100772.34
2022-09-20T07:56:47.903Z,100771.94
2022-09-20T07:59:17.944Z,100776.56
2022-09-20T08:01:46.303Z,100775.81
2022-09-20T08:04:14.645Z,100767.81
2022-09-20T08:06:44.510Z,100772.22
2022-09-20T08:09:15.112Z,100771.66
2022-09-20T08:11:44.123Z,100776.41
2022-09-20T08:14:18.521Z,100782.25
2022-09-20T08:16:51.954Z,100773.81
2022-09-20T08:19:21.787Z,100772.63
2022-09-20T08:21:51.807Z,100777.09
2022-09-20T08:24:22.315Z,100769.69
2022-09-20T08:26:51.669Z,100776.09
2022-09-20T08:29:21.166Z,100777.03
2022-09-20T08:31:49.748Z,100772.41
2022-09-20T08:34:18.607Z,100777.81
2022-09-20T08:36:54.330Z,100781.94
2022-09-20T08:42:18.459Z,100772.50
2022-09-20T08:44:59.056Z,100774.84
2022-09-20T08:47:31.202Z,100775.97
2022-09-20T08:50:08.953Z,100779.97
2022-09-20T08:52:40.443Z,100782.38
2022-09-20T08:55:16.962Z,100778.69
2022-09-20T08:57:50.044Z,100789.16
2022-09-20T09:00:21.636Z,100784.66
2022-09-20T09:02:53.299Z,100782.25
2022-09-20T09:05:32.682Z,100784.78
2022-09-20T09:08:04.568Z,100788.53
2022-09-20T09:10:42.548Z,100779.38
2022-09-20T09:13:20.336Z,100776.47
2022-09-20T09:15:55.234Z,100771.38
2022-09-20T09:18:31.598Z,100770.78
2022-09-20T09:21:04.514Z,100777.66
2022-09-20T09:23:41.525Z,100779.47
2022-09-20T09:26:17.931Z,100772.88
2022-09-20T09:28:46.024Z,100782.03
2022-09-20T09:31:25.863Z,100781.28
2022-09-20T09:33:53.901Z,100776.78
2022-09-20T09:36:25.366Z,100783.50
2022-09-20T09:39:18.065Z,100772.78
2022-09-20T09:41:46.680Z,100764.72
2022-09-20T09:44:22.581Z,100767.44
2022-09-20T09:46:53.667Z,100762.63
2022-09-20T09:49:23.794Z,100764.28
2022-09-20T09:52:14.474Z,100760.84
2022-09-20T09:54:49.168Z,100762.84
2022-09-20T09:57:32.172Z,100757.66
2022-09-20T10:00:22.172Z,100760.31
2022-09-20T10:03:12.910Z,100765.78
2022-09-20T10:05:52.079Z,100766.75
2022-09-20T10:08:28.268Z,100759.31
2022-09-20T10:11:11.315Z,100747.09
2022-09-20T10:13:51.238Z,100745.41
2022-09-20T10:16:37.950Z,100748.81
2022-09-20T10:19:22.781Z,100746.56
2022-09-20T10:21:58.034Z,100741.13
2022-09-20T10:24:35.593Z,100732.66
2022-09-20T10:27:16.516Z,100742.03
2022-09-20T10:29:58.510Z,100732.09
2022-09-20T10:32:45.468Z,100741.56
2022-09-20T10:35:34.927Z,100737.56
2022-09-20T10:38:19.974Z,100733.00
2022-09-20T10:41:41.111Z,100728.22
2022-09-20T10:44:27.485Z,100724.00
2022-09-20T10:47:04.652Z,100729.16
2022-09-20T10:49:45.138Z,100734.94
2022-09-20T10:52:31.816Z,100733.94
2022-09-20T10:55:25.618Z,100736.25
2022-09-20T10:58:23.716Z,100738.81
2022-09-20T11:01:02.468Z,100734.31
2022-09-20T11:03:52.716Z,100734.63
2022-09-20T11:06:29.686Z,100741.31
2022-09-20T11:09:03.035Z,100735.59
2022-09-20T11:11:35.865Z,100729.09
2022-09-20T11:14:09.217Z,100738.00
2022-09-20T11:16:44.967Z,100739.78
2022-09-20T11:19:23.487Z,100740.03
2022-09-20T11:21:57.331Z,100735.84
2022-09-20T11:24:35.099Z,100741.22
2022-09-20T11:27:11.470Z,100741.91
2022-09-20T11:29:45.395Z,100742.97
2022-09-20T11:32:21.515Z,100742.91
2022-09-20T11:34:55.556Z,100747.41
2022-09-20T11:37:28.651Z,100749.91
2022-09-20T11:40:03.061Z,100755.94
2022-09-20T11:42:36.637Z,100756.88
2022-09-20T11:45:05.250Z,100755.28
2022-09-20T11:47:54.545Z,100758.66
2022-09-20T11:51:07.912Z,100757.72
2022-09-20T11:53:51.583Z,100759.81
2022-09-20T11:56:24.540Z,100760.97
2022-09-20T11:58:55.224Z,100760.34
2022-09-20T12:01:30.383Z,100762.44
2022-09-20T12:04:30.717Z,100758.50
2022-09-20T12:07:04.560Z,100757.03
2022-09-20T12:09:39.549Z,100738.19
2022-09-20T12:12:24.718Z,100739.00
2022-09-20T12:14:58.555Z,100736.44
2022-09-20T12:18:13.680Z,100728.75
2022-09-20T12:21:06.509Z,100733.47
2022-09-20T12:24:11.778Z,100730.63
2022-09-20T12:26:47.136Z,100735.09
2022-09-20T12:30:03.581Z,100736.88
2022-09-20T12:32:57.534Z,100733.78
2022-09-20T12:36:00.632Z,100739.09
2022-09-20T12:38:36.059Z,100740.41
2022-09-20T12:41:09.081Z,100742.34
2022-09-20T12:43:41.334Z,100737.91
2022-09-20T12:46:25.195Z,100732.97
2022-09-20T12:49:11.255Z,100730.91
2022-09-20T12:51:57.070Z,100734.63
2022-09-20T12:54:26.141Z,100726.97
2022-09-20T12:56:55.186Z,100728.53
2022-09-20T12:59:27.269Z,100723.16
2022-09-20T13:01:57.402Z,100722.47
2022-09-20T13:04:57.320Z,100721.09
2022-09-20T13:07:55.279Z,100717.31
2022-09-20T13:10:33.787Z,100717.91
2022-09-20T13:13:32.836Z,100727.31
2022-09-20T13:16:06.011Z,100723.25
2022-09-20T13:18:37.928Z,100719.78
2022-09-20T13:21:09.915Z,100728.13
2022-09-20T13:23:49.861Z,100739.22
2022-09-20T13:26:27.211Z,100744.75
2022-09-20T13:28:59.164Z,100743.59
2022-09-20T13:31:33.808Z,100744.63
2022-09-20T13:34:16.014Z,100759.50
2022-09-20T13:36:46.836Z,100762.66
2022-09-20T13:39:36.898Z,100746.53
2022-09-20T13:42:19.928Z,100745.28
2022-09-20T13:44:49.146Z,100736.22
2022-09-20T13:47:25.676Z,100721.72
2022-09-20T13:50:02.316Z,100734.16
2022-09-20T13:52:33.110Z,100732.81
2022-09-20T13:55:01.099Z,100728.50
2022-09-20T13:57:32.145Z,100733.06
2022-09-20T14:00:01.699Z,100726.66
2022-09-20T14:02:40.313Z,100732.16
2022-09-20T14:05:17.059Z,100722.16
2022-09-20T14:07:47.564Z,100740.94
2022-09-20T14:10:34.646Z,100754.25
2022-09-20T14:13:07.483Z,100770.38
2022-09-20T14:15:38.793Z,100786.97
2022-09-20T14:18:08.916Z,100784.19
2022-09-20T14:20:36.887Z,100771.06
2022-09-20T14:23:07.393Z,100757.09
2022-09-20T14:25:35.346Z,100746.84
2022-09-20T14:28:09.286Z,100737.38
2022-09-20T14:30:38.625Z,100740.44
2022-09-20T14:33:08.418Z,100731.47
2022-09-20T14:35:36.403Z,100730.34
2022-09-20T14:38:13.646Z,100728.88
2022-09-20T14:40:44.723Z,100720.44
2022-09-20T14:43:26.294Z,100721.66
2022-09-20T14:45:57.089Z,100712.84
2022-09-20T14:48:41.087Z,100721.75
2022-09-20T14:51:27.071Z,100722.25
2022-09-20T14:54:24.377Z,100712.41
2022-09-20T14:56:53.100Z,100710.19
2022-09-20T14:59:33.834Z,100711.00
2022-09-20T15:02:08.062Z,100710.94
2022-09-20T15:04:40.289Z,100703.63
2022-09-20T15:07:11.377Z,100708.22
2022-09-20T15:09:41.223Z,100708.53
2022-09-20T15:12:17.104Z,100707.97
2022-09-20T15:14:47.469Z,100706.63
2022-09-20T15:17:18.009Z,100702.44
2022-09-20T15:19:46.343Z,100703.69
2022-09-20T15:22:15.494Z,100704.28
2022-09-20T15:27:13.243Z,100704.53
2022-09-20T15:29:41.130Z,100703.81
2022-09-20T15:32:11.700Z,100712.66
2022-09-20T15:34:39.663Z,100707.31
2022-09-20T15:37:07.399Z,100707.94
2022-09-20T15:39:35.370Z,100699.72
2022-09-20T15:42:05.087Z,100707.72
2022-09-20T15:44:33.169Z,100700.63
2022-09-20T15:47:01.620Z,100704.94
2022-09-20T15:49:31.191Z,100711.63
2022-09-20T15:51:59.259Z,100710.50
2022-09-20T15:54:27.071Z,100709.56
2022-09-20T15:56:54.725Z,100706.50
2022-09-20T15:59:24.352Z,100705.03
2022-09-20T16:01:52.056Z,100711.50
2022-09-20T16:04:21.246Z,100709.53
2022-09-20T16:06:50.539Z,100710.63
2022-09-20T16:09:19.372Z,100709.00
2022-09-20T16:11:48.249Z,100717.22
2022-09-20T16:14:16.464Z,100721.41
2022-09-20T16:16:45.728Z,100716.69
2022-09-20T16:19:20.814Z,100721.84
2022-09-20T16:21:55.031Z,100719.97
2022-09-20T16:24:26.210Z,100713.38
2022-09-20T16:26:54.560Z,100721.41
2022-09-20T16:29:23.513Z,100723.16
2022-09-20T16:31:54.753Z,100720.31
2022-09-20T16:34:28.686Z,100719.47
2022-09-20T16:36:58.980Z,100725.56
2022-09-20T16:39:28.605Z,100734.06
2022-09-20T16:42:03.503Z,100730.59
2022-09-20T16:44:31.985Z,100733.63
2022-09-20T16:47:01.054Z,100731.69
2022-09-20T16:49:29.740Z,100737.22
2022-09-20T16:51:57.433Z,100739.47
2022-09-20T16:54:29.758Z,100747.78
2022-09-20T16:56:59.698Z,100744.75
2022-09-20T16:59:27.670Z,100742.03
2022-09-20T17:01:56.236Z,100747.31
2022-09-20T17:04:26.680Z,100752.50
2022-09-20T17:06:54.543Z,100742.22
2022-09-20T17:09:22.283Z,100747.13
2022-09-20T17:11:51.897Z,100750.81
2022-09-20T17:14:22.080Z,100750.25
2022-09-20T17:16:50.407Z,100757.38
2022-09-20T17:19:20.156Z,100758.16
2022-09-20T17:21:51.374Z,100758.38
2022-09-20T17:24:20.236Z,100764.88
2022-09-20T17:26:48.933Z,100765.81
2022-09-20T17:29:17.799Z,100775.13
2022-09-20T17:31:53.241Z,100778.31
2022-09-20T17:34:22.938Z,100776.84
2022-09-20T17:36:52.012Z,100775.91
2022-09-20T17:39:21.232Z,100777.38
2022-09-20T17:41:50.667Z,100787.50
2022-09-20T17:44:18.497Z,100786.41
2022-09-20T17:46:49.462Z,100788.44
2022-09-20T17:49:19.481Z,100786.31
2022-09-20T17:51:48.850Z,100792.69
2022-09-20T17:54:19.237Z,100791.03
2022-09-20T17:56:50.371Z,100786.94
2022-09-20T17:59:20.027Z,100799.09
2022-09-20T18:01:49.681Z,100796.84
2022-09-20T18:04:18.348Z,100800.38
2022-09-20T18:06:47.800Z,100795.53
2022-09-20T18:09:19.091Z,100788.81
2022-09-20T18:11:50.022Z,100791.34
2022-09-20T18:14:20.387Z,100794.25
2022-09-20T18:16:49.030Z,100803.94
2022-09-20T18:19:17.183Z,100804.06
2022-09-20T18:21:47.931Z,100814.19
2022-09-20T18:24:16.311Z,100811.03
2022-09-20T18:26:45.867Z,100809.19
2022-09-20T18:29:18.075Z,100819.22
2022-09-20T18:31:49.652Z,100826.69
2022-09-20T18:34:19.131Z,100821.28
2022-09-20T18:36:51.831Z,100829.84
2022-09-20T18:39:21.028Z,100829.47
2022-09-20T18:41:50.730Z,100831.41
2022-09-20T18:44:19.321Z,100835.50
2022-09-20T18:46:51.236Z,100847.53
2022-09-20T18:49:21.095Z,100835.88
2022-09-20T18:51:49.667Z,100841.06
2022-09-20T18:54:33.498Z,100850.81
2022-09-20T18:57:03.517Z,100851.19
2022-09-20T18:59:31.723Z,100849.13
2022-09-20T19:02:25.549Z,100860.31
2022-09-20T19:05:14.141Z,100854.38
2022-09-20T19:07:53.290Z,100852.38
2022-09-20T19:10:28.115Z,100860.00
2022-09-20T19:13:03.621Z,100860.69
2022-09-20T19:15:46.657Z,100868.47
2022-09-20T19:18:31.727Z,100868.16
2022-09-20T19:21:06.680Z,100875.56
2022-09-20T19:24:02.399Z,100873.50
2022-09-20T19:26:38.246Z,100879.41
2022-09-20T19:29:18.202Z,100881.53
2022-09-20T19:31:48.818Z,100881.31
2022-09-20T19:34:21.247Z,100889.44
2022-09-20T19:37:02.076Z,100891.97
2022-09-20T19:39:44.442Z,100889.97
2022-09-20T19:42:22.343Z,100891.44
2022-09-20T19:44:58.406Z,100899.75
2022-09-20T19:47:43.626Z,100904.09
2022-09-20T19:50:17.310Z,100903.41
2022-09-20T19:52:46.044Z,100905.13
2022-09-20T19:55:15.215Z,100904.09
2022-09-20T19:57:47.084Z,100902.00
2022-09-20T20:00:19.463Z,100901.19
2022-09-20T20:02:48.460Z,100913.41
2022-09-20T20:05:19.687Z,100906.91
2022-09-20T20:07:54.908Z,100904.00
2022-09-20T20:10:28.872Z,100911.31
2022-09-20T20:13:25.260Z,100915.88
2022-09-20T20:16:01.695Z,100913.50
2022-09-20T20:18:38.240Z,100917.47
2022-09-20T20:21:13.683Z,100916.63
2022-09-20T20:23:52.785Z,100914.38
2022-09-20T20:26:23.401Z,100918.53
2022-09-20T20:28:52.507Z,100916.97
2022-09-20T20:31:23.369Z,100919.44
2022-09-20T20:33:51.746Z,100919.53
2022-09-20T20:36:19.610Z,100918.44
2022-09-20T20:38:50.725Z,100924.34
2022-09-20T20:41:21.791Z,100919.88
2022-09-20T20:43:56.487Z,100927.34
2022-09-20T20:46:27.194Z,100924.00
2022-09-20T20:48:55.616Z,100927.19
2022-09-20T20:51:24.105Z,100937.56
2022-09-20T20:53:54.876Z,100930.66
2022-09-20T20:56:25.708Z,100929.72
2022-09-20T20:58:54.353Z,100934.22
2022-09-20T21:01:24.005Z,100939.41
2022-09-20T21:03:54.971Z,100947.69
2022-09-20T21:06:24.979Z,100944.25
2022-09-20T21:08:53.760Z,100946.00
2022-09-20T21:11:24.539Z,100949.03
2022-09-20T21:13:53.089Z,100948.41
2022-09-20T21:16:22.901Z,100952.81
2022-09-20T21:18:53.190Z,100945.84
2022-09-20T21:21:23.267Z,100942.44
2022-09-20T21:23:53.687Z,100944.78
2022-09-20T21:26:23.055Z,100949.56
2022-09-20T21:28:53.981Z,100951.91
2022-09-20T21:31:23.861Z,100947.22
2022-09-20T21:33:54.448Z,100947.72
2022-09-20T21:36:27.417Z,100952.16
2022-09-20T21:38:56.503Z,100950.50
2022-09-20T21:41:27.363Z,100944.16
2022-09-20T21:43:57.273Z,100943.81
2022-09-20T21:46:28.274Z,100954.63
2022-09-20T21:49:09.267Z,100955.84
2022-09-20T21:51:40.350Z,100956.22
2022-09-20T21:54:09.137Z,100948.63
2022-09-20T21:56:38.923Z,100954.69
2022-09-20T21:59:07.865Z,100952.34
2022-09-20T22:01:37.817Z,100947.34
2022-09-20T22:04:08.685Z,100951.44
2022-09-20T22:06:47.909Z,100953.06
2022-09-20T22:09:18.919Z,100957.09
2022-09-20T22:11:48.892Z,100954.25
2022-09-20T22:14:19.957Z,100955.56
2022-09-20T22:16:51.258Z,100952.66
2022-09-20T22:19:20.979Z,100958.34
2022-09-20T22:21:51.039Z,100954.03
2022-09-20T22:24:19.298Z,100957.47
2022-09-20T22:26:49.410Z,100957.25
2022-09-20T22:29:18.341Z,100960.84
2022-09-20T22:31:48.313Z,100954.56
2022-09-20T22:34:18.010Z,100955.19
2022-09-20T22:36:47.523Z,100953.31
2022-09-20T22:39:16.259Z,100961.63
2022-09-20T22:41:44.945Z,100958.25
2022-09-20T22:44:12.884Z,100965.81
2022-09-20T22:46:41.686Z,100956.41
2022-09-20T22:49:10.183Z,100963.13
2022-09-20T22:51:38.744Z,100964.94
2022-09-20T22:54:10.207Z,100969.81
2022-09-20T22:56:41.336Z,100969.25
2022-09-20T22:59:11.208Z,100967.41
2022-09-20T23:01:42.467Z,100971.59
2022-09-20T23:04:12.790Z,100971.16
2022-09-20T23:06:42.230Z,100972.41
2022-09-20T23:09:13.716Z,100968.38
2022-09-20T23:11:42.701Z,100972.41
2022-09-20T23:14:12.785Z,100972.69
2022-09-20T23:16:41.082Z,100972.47
2022-09-20T23:19:10.026Z,100968.75
2022-09-20T23:21:39.451Z,100971.03
2022-09-20T23:24:09.445Z,100966.41
2022-09-20T23:26:40.212Z,100974.31
2022-09-20T23:29:11.791Z,100970.50
2022-09-20T23:31:41.663Z,100971.44
2022-09-20T23:34:10.817Z,100968.75
2022-09-20T23:36:40.949Z,100972.25
2022-09-20T23:39:11.637Z,100977.09
2022-09-20T23:41:43.237Z,100971.34
2022-09-20T23:44:13.849Z,100971.56
2022-09-20T23:46:42.801Z,100974.09
2022-09-20T23:49:10.865Z,100966.41
2022-09-20T23:51:40.979Z,100964.06
2022-09-20T23:54:09.113Z,100965.88
2022-09-20T23:56:38.382Z,100960.50
2022-09-20T23:59:07.746Z,100960.50
